Time,TemperatureF,DewpointF,PressureIn,WindDirection,WindDirectionDegrees,WindSpeedMPH,WindSpeedGustMPH,Humidity,HourlyPrecipIn,Conditions,Clouds,dailyrainin,SoftwareType,DateUTC
2013-02-20 00:02:00,39.0,38.0,29.55,WNW,282,0.0,0.0,95,-99.99,,,-99.99,,2013-02-20 05:02:00,
2013-02-20 00:12:00,39.0,38.0,29.55,WNW,282,0.0,0.0,95,-99.99,,,-99.99,,2013-02-20 05:12:00,
2013-02-20 00:22:00,37.0,35.0,29.56,WNW,282,0.0,0.0,94,-99.99,,,-99.99,,2013-02-20 05:22:00,
2013-02-20 00:32:00,37.0,35.0,29.54,WNW,282,0.0,0.0,94,-99.99,,,-99.99,,2013-02-20 05:32:00,
2013-02-20 00:43:00,37.0,35.0,29.54,WNW,282,0.0,0.0,94,-99.99,,,-99.99,,2013-02-20 05:43:00,
2013-02-20 00:52:00,37.0,35.0,29.54,WNW,282,0.0,0.0,94,-99.99,,,-99.99,,2013-02-20 05:52:00,
2013-02-20 01:01:00,37.0,35.0,29.53,SW,218,0.0,4.0,94,-99.99,,,-99.99,,2013-02-20 06:01:00,
2013-02-20 01:11:00,38.0,37.0,29.54,SW,218,0.0,0.0,95,-99.99,,,-99.99,,2013-02-20 06:11:00,
2013-02-20 01:21:00,38.0,37.0,29.54,SW,218,0.0,0.0,95,-99.99,,,-99.99,,2013-02-20 06:21:00,
2013-02-20 01:32:00,39.0,38.0,29.52,SW,218,0.0,2.0,95,-99.99,,,-99.99,,2013-02-20 06:32:00,
2013-02-20 01:42:00,39.0,38.0,29.52,SW,218,0.0,2.0,95,-99.99,,,-99.99,,2013-02-20 06:42:00,
2013-02-20 01:51:00,39.0,38.0,29.52,SW,218,0.0,0.0,95,-99.99,,,-99.99,,2013-02-20 06:51:00,
2013-02-20 02:02:00,39.0,38.0,29.51,SW,218,0.0,0.0,95,-99.99,,,-99.99,,2013-02-20 07:02:00,
2013-02-20 02:11:00,39.0,38.0,29.51,SW,218,0.0,0.0,95,-99.99,,,-99.99,,2013-02-20 07:11:00,
2013-02-20 02:21:00,38.0,37.0,29.50,SW,218,0.0,1.0,95,-99.99,,,-99.99,,2013-02-20 07:21:00,
2013-02-20 02:31:00,38.0,37.0,29.50,SSE,156,0.0,3.0,95,-99.99,,,-99.99,,2013-02-20 07:31:00,
2013-02-20 02:42:00,38.0,37.0,29.50,SSE,156,0.0,3.0,95,-99.99,,,-99.99,,2013-02-20 07:42:00,
2013-02-20 02:52:00,38.0,37.0,29.49,WNW,294,1.0,2.0,95,-99.99,,,-99.99,,2013-02-20 07:52:00,
2013-02-20 03:05:00,37.0,36.0,29.51,WNW,294,1.0,3.0,95,-99.99,,,-99.99,,2013-02-20 08:05:00,
2013-02-20 03:11:00,37.0,36.0,29.50,West,269,3.0,8.0,95,-99.99,,,-99.99,,2013-02-20 08:11:00,
2013-02-20 03:21:00,37.0,36.0,29.50,West,269,3.0,8.0,95,-99.99,,,-99.99,,2013-02-20 08:21:00,
2013-02-20 03:31:00,37.0,36.0,29.50,WNW,283,3.0,8.0,95,-99.99,,,-99.99,,2013-02-20 08:31:00,
2013-02-20 03:41:00,37.0,36.0,29.50,WNW,283,3.0,8.0,95,-99.99,,,-99.99,,2013-02-20 08:41:00,
2013-02-20 03:52:00,37.0,36.0,29.50,SW,228,3.0,4.0,95,-99.99,,,-99.99,,2013-02-20 08:52:00,
2013-02-20 04:01:00,37.0,36.0,29.50,West,272,3.0,5.0,95,-99.99,,,-99.99,,2013-02-20 09:01:00,
2013-02-20 04:11:00,37.0,36.0,29.50,West,272,3.0,5.0,95,-99.99,,,-99.99,,2013-02-20 09:11:00,
2013-02-20 04:21:00,37.0,36.0,29.50,West,263,2.0,6.0,95,-99.99,,,-99.99,,2013-02-20 09:21:00,
2013-02-20 04:31:00,37.0,35.0,29.51,West,265,3.0,6.0,94,-99.99,,,-99.99,,2013-02-20 09:31:00,
2013-02-20 04:42:00,37.0,35.0,29.51,West,265,3.0,6.0,94,-99.99,,,-99.99,,2013-02-20 09:42:00,
2013-02-20 04:52:00,37.0,35.0,29.51,West,265,3.0,6.0,94,-99.99,,,-99.99,,2013-02-20 09:52:00,
2013-02-20 05:01:00,37.0,35.0,29.52,WNW,294,2.0,9.0,93,-99.99,,,-99.99,,2013-02-20 10:01:00,
2013-02-20 05:12:00,37.0,35.0,29.52,WNW,294,2.0,9.0,93,-99.99,,,-99.99,,2013-02-20 10:12:00,
2013-02-20 05:22:00,36.0,33.0,29.53,NW,304,10.0,18.0,90,-99.99,,,-99.99,,2013-02-20 10:22:00,
2013-02-20 05:32:00,36.0,32.0,29.53,WNW,296,8.0,20.0,84,-99.99,,,-99.99,,2013-02-20 10:32:00,
2013-02-20 05:42:00,36.0,32.0,29.53,WNW,296,8.0,20.0,84,-99.99,,,-99.99,,2013-02-20 10:42:00,
2013-02-20 05:52:00,35.0,29.0,29.54,WNW,284,9.0,24.0,79,-99.99,,,-99.99,,2013-02-20 10:52:00,
2013-02-20 06:02:00,35.0,29.0,29.53,WNW,302,10.0,20.0,78,-99.99,,,-99.99,,2013-02-20 11:02:00,
2013-02-20 06:11:00,35.0,28.0,29.54,West,278,9.0,14.0,76,-99.99,,,-99.99,,2013-02-20 11:11:00,
2013-02-20 06:21:00,35.0,28.0,29.54,West,278,9.0,14.0,76,-99.99,,,-99.99,,2013-02-20 11:21:00,
2013-02-20 06:32:00,34.0,27.0,29.54,West,281,3.0,13.0,76,-99.99,,,-99.99,,2013-02-20 11:32:00,
2013-02-20 06:42:00,34.0,27.0,29.54,West,281,3.0,13.0,76,-99.99,,,-99.99,,2013-02-20 11:42:00,
2013-02-20 06:52:00,34.0,26.0,29.56,WNW,294,5.0,13.0,73,-99.99,,,-99.99,,2013-02-20 11:52:00,
2013-02-20 07:02:00,34.0,26.0,29.56,West,265,7.0,13.0,73,-99.99,,,-99.99,,2013-02-20 12:02:00,
2013-02-20 07:12:00,34.0,26.0,29.56,West,265,7.0,13.0,73,-99.99,,,-99.99,,2013-02-20 12:12:00,
2013-02-20 07:22:00,34.0,26.0,29.56,WNW,284,7.0,14.0,72,-99.99,,,-99.99,,2013-02-20 12:22:00,
2013-02-20 07:32:00,34.0,26.0,29.56,WNW,284,7.0,14.0,72,-99.99,,,-99.99,,2013-02-20 12:32:00,
2013-02-20 07:42:00,34.0,26.0,29.56,WNW,284,7.0,14.0,72,-99.99,,,-99.99,,2013-02-20 12:42:00,
2013-02-20 07:52:00,33.0,23.0,29.58,West,278,7.0,15.0,67,-99.99,,,-99.99,,2013-02-20 12:52:00,
2013-02-20 08:01:00,33.0,23.0,29.58,West,265,5.0,21.0,65,-99.99,,,-99.99,,2013-02-20 13:01:00,
2013-02-20 08:12:00,33.0,23.0,29.58,West,265,5.0,21.0,65,-99.99,,,-99.99,,2013-02-20 13:12:00,
2013-02-20 08:22:00,33.0,23.0,29.59,WSW,257,3.0,17.0,66,-99.99,,,-99.99,,2013-02-20 13:22:00,
2013-02-20 08:32:00,33.0,23.0,29.59,WSW,257,4.0,11.0,65,-99.99,,,-99.99,,2013-02-20 13:32:00,
2013-02-20 08:42:00,33.0,23.0,29.59,WSW,257,4.0,11.0,65,-99.99,,,-99.99,,2013-02-20 13:42:00,
2013-02-20 08:52:00,34.0,23.0,29.59,WNW,287,4.0,10.0,64,-99.99,,,-99.99,,2013-02-20 13:52:00,
2013-02-20 09:01:00,34.0,23.0,29.59,NW,304,3.0,13.0,64,-99.99,,,-99.99,,2013-02-20 14:01:00,
2013-02-20 09:11:00,34.0,23.0,29.59,NW,304,3.0,13.0,64,-99.99,,,-99.99,,2013-02-20 14:11:00,
2013-02-20 09:21:00,33.0,21.0,29.60,West,279,5.0,14.0,62,-99.99,,,-99.99,,2013-02-20 14:21:00,
2013-02-20 09:32:00,33.0,21.0,29.60,WNW,283,9.0,15.0,62,-99.99,,,-99.99,,2013-02-20 14:32:00,
2013-02-20 09:42:00,33.0,21.0,29.60,West,259,6.0,12.0,61,-99.99,,,-99.99,,2013-02-20 14:42:00,
2013-02-20 09:52:00,33.0,21.0,29.60,West,259,6.0,12.0,61,-99.99,,,-99.99,,2013-02-20 14:52:00,
2013-02-20 10:01:00,33.0,21.0,29.60,West,281,5.0,14.0,61,-99.99,,,-99.99,,2013-02-20 15:01:00,
2013-02-20 10:11:00,34.0,22.0,29.60,WNW,303,9.0,19.0,60,-99.99,,,-99.99,,2013-02-20 15:11:00,
2013-02-20 10:22:00,34.0,22.0,29.60,WNW,303,9.0,19.0,60,-99.99,,,-99.99,,2013-02-20 15:22:00,
2013-02-20 10:32:00,34.0,22.0,29.60,WNW,296,5.0,22.0,61,-99.99,,,-99.99,,2013-02-20 15:32:00,
2013-02-20 10:42:00,33.0,20.0,29.60,WNW,293,7.0,18.0,59,-99.99,,,-99.99,,2013-02-20 15:42:00,
2013-02-20 10:52:00,33.0,20.0,29.60,WNW,293,7.0,18.0,59,-99.99,,,-99.99,,2013-02-20 15:52:00,
2013-02-20 11:01:00,33.0,21.0,29.61,NW,314,8.0,18.0,60,-99.99,,,-99.99,,2013-02-20 16:01:00,
2013-02-20 11:12:00,34.0,20.0,29.61,WNW,286,9.0,16.0,57,-99.99,,,-99.99,,2013-02-20 16:12:00,
2013-02-20 11:21:00,34.0,20.0,29.61,WNW,286,9.0,16.0,57,-99.99,,,-99.99,,2013-02-20 16:21:00,
2013-02-20 11:32:00,34.0,20.0,29.61,NW,311,7.0,20.0,57,-99.99,,,-99.99,,2013-02-20 16:32:00,
2013-02-20 11:42:00,34.0,21.0,29.61,West,259,7.0,16.0,58,-99.99,,,-99.99,,2013-02-20 16:42:00,
2013-02-20 11:52:00,34.0,21.0,29.61,West,259,7.0,16.0,58,-99.99,,,-99.99,,2013-02-20 16:52:00,
2013-02-20 12:01:00,35.0,21.0,29.61,West,263,6.0,16.0,56,-99.99,,,-99.99,,2013-02-20 17:01:00,
2013-02-20 12:11:00,35.0,21.0,29.60,West,276,5.0,13.0,57,-99.99,,,-99.99,,2013-02-20 17:11:00,
2013-02-20 12:21:00,35.0,21.0,29.60,West,276,5.0,13.0,57,-99.99,,,-99.99,,2013-02-20 17:21:00,
2013-02-20 12:32:00,34.0,20.0,29.60,West,265,13.0,18.0,56,-99.99,,,-99.99,,2013-02-20 17:32:00,
2013-02-20 12:42:00,34.0,21.0,29.60,West,265,9.0,16.0,58,-99.99,,,-99.99,,2013-02-20 17:42:00,
2013-02-20 12:52:00,34.0,21.0,29.60,West,265,9.0,16.0,58,-99.99,,,-99.99,,2013-02-20 17:52:00,
2013-02-20 13:02:00,33.0,20.0,29.59,WNW,290,6.0,16.0,58,-99.99,,,-99.99,,2013-02-20 18:02:00,
2013-02-20 13:11:00,33.0,20.0,29.59,WNW,290,6.0,16.0,58,-99.99,,,-99.99,,2013-02-20 18:11:00,
2013-02-20 13:22:00,33.0,19.0,29.59,WSW,257,5.0,14.0,57,-99.99,,,-99.99,,2013-02-20 18:22:00,
2013-02-20 13:32:00,33.0,19.0,29.59,WSW,257,5.0,14.0,57,-99.99,,,-99.99,,2013-02-20 18:32:00,
2013-02-20 13:42:00,33.0,19.0,29.59,WSW,257,5.0,14.0,57,-99.99,,,-99.99,,2013-02-20 18:42:00,
2013-02-20 13:52:00,34.0,20.0,29.59,NW,322,9.0,18.0,55,-99.99,,,-99.99,,2013-02-20 18:52:00,
2013-02-20 14:01:00,34.0,20.0,29.59,NW,322,9.0,18.0,55,-99.99,,,-99.99,,2013-02-20 19:01:00,
2013-02-20 14:11:00,34.0,20.0,29.59,NW,322,9.0,18.0,55,-99.99,,,-99.99,,2013-02-20 19:11:00,
2013-02-20 14:21:00,34.0,19.0,29.58,WNW,284,10.0,18.0,54,-99.99,,,-99.99,,2013-02-20 19:21:00,
2013-02-20 14:31:00,34.0,19.0,29.58,WNW,284,10.0,18.0,54,-99.99,,,-99.99,,2013-02-20 19:31:00,
2013-02-20 14:42:00,34.0,19.0,29.58,WNW,284,10.0,18.0,54,-99.99,,,-99.99,,2013-02-20 19:42:00,
2013-02-20 14:52:00,33.0,18.0,29.59,WNW,283,11.0,19.0,53,-99.99,,,-99.99,,2013-02-20 19:52:00,
2013-02-20 15:01:00,33.0,18.0,29.59,WNW,283,11.0,19.0,53,-99.99,,,-99.99,,2013-02-20 20:01:00,
2013-02-20 15:11:00,33.0,17.0,29.59,West,261,6.0,16.0,52,-99.99,,,-99.99,,2013-02-20 20:11:00,
2013-02-20 15:21:00,33.0,17.0,29.59,West,261,6.0,16.0,52,-99.99,,,-99.99,,2013-02-20 20:21:00,
2013-02-20 15:31:00,34.0,19.0,29.59,WNW,284,6.0,19.0,53,-99.99,,,-99.99,,2013-02-20 20:31:00,
2013-02-20 15:41:00,34.0,18.0,29.60,WNW,284,8.0,19.0,51,-99.99,,,-99.99,,2013-02-20 20:41:00,
2013-02-20 15:52:00,34.0,18.0,29.60,WNW,284,8.0,19.0,51,-99.99,,,-99.99,,2013-02-20 20:52:00,
2013-02-20 16:01:00,33.0,17.0,29.60,WNW,294,10.0,16.0,51,-99.99,,,-99.99,,2013-02-20 21:01:00,
2013-02-20 16:11:00,33.0,17.0,29.61,WSW,254,12.0,21.0,51,-99.99,,,-99.99,,2013-02-20 21:11:00,
2013-02-20 16:21:00,33.0,17.0,29.61,WSW,254,12.0,21.0,51,-99.99,,,-99.99,,2013-02-20 21:21:00,
2013-02-20 16:31:00,33.0,18.0,29.61,West,277,9.0,19.0,53,-99.99,,,-99.99,,2013-02-20 21:31:00,
2013-02-20 16:42:00,33.0,18.0,29.61,West,277,9.0,19.0,53,-99.99,,,-99.99,,2013-02-20 21:42:00,
2013-02-20 16:52:00,32.0,17.0,29.61,WSW,254,7.0,18.0,54,-99.99,,,-99.99,,2013-02-20 21:52:00,
2013-02-20 17:01:00,32.0,16.0,29.61,WNW,303,8.0,20.0,52,-99.99,,,-99.99,,2013-02-20 22:01:00,
2013-02-20 17:11:00,32.0,16.0,29.62,West,280,13.0,22.0,51,-99.99,,,-99.99,,2013-02-20 22:11:00,
2013-02-20 17:21:00,32.0,16.0,29.62,West,280,13.0,22.0,51,-99.99,,,-99.99,,2013-02-20 22:21:00,
2013-02-20 17:31:00,32.0,18.0,29.62,WNW,288,5.0,13.0,55,-99.99,,,-99.99,,2013-02-20 22:31:00,
2013-02-20 17:42:00,32.0,18.0,29.62,WNW,288,5.0,13.0,55,-99.99,,,-99.99,,2013-02-20 22:42:00,
2013-02-20 17:51:00,31.0,17.0,29.63,West,273,8.0,16.0,55,-99.99,,,-99.99,,2013-02-20 22:51:00,
2013-02-20 18:01:00,31.0,17.0,29.63,West,276,8.0,15.0,55,-99.99,,,-99.99,,2013-02-20 23:01:00,
2013-02-20 18:12:00,31.0,17.0,29.65,WSW,252,10.0,15.0,55,-99.99,,,-99.99,,2013-02-20 23:12:00,
2013-02-20 18:22:00,31.0,17.0,29.65,WSW,252,10.0,15.0,55,-99.99,,,-99.99,,2013-02-20 23:22:00,
2013-02-20 18:32:00,31.0,17.0,29.65,West,272,9.0,15.0,55,-99.99,,,-99.99,,2013-02-20 23:32:00,
2013-02-20 18:42:00,31.0,17.0,29.65,West,272,9.0,15.0,55,-99.99,,,-99.99,,2013-02-20 23:42:00,
2013-02-20 18:53:00,30.0,17.0,29.66,West,267,6.0,15.0,57,-99.99,,,-99.99,,2013-02-20 23:53:00,
2013-02-20 19:03:00,30.0,17.0,29.66,WNW,288,7.0,16.0,57,-99.99,,,-99.99,,2013-02-21 00:03:00,
2013-02-20 19:11:00,30.0,17.0,29.66,WNW,288,7.0,16.0,57,-99.99,,,-99.99,,2013-02-21 00:11:00,
2013-02-20 19:22:00,30.0,17.0,29.66,WSW,253,9.0,18.0,57,-99.99,,,-99.99,,2013-02-21 00:22:00,
2013-02-20 19:32:00,30.0,17.0,29.66,WSW,253,9.0,18.0,57,-99.99,,,-99.99,,2013-02-21 00:32:00,
2013-02-20 19:42:00,30.0,17.0,29.66,West,264,7.0,16.0,58,-99.99,,,-99.99,,2013-02-21 00:42:00,
2013-02-20 19:52:00,30.0,17.0,29.66,West,264,7.0,16.0,58,-99.99,,,-99.99,,2013-02-21 00:52:00,
2013-02-20 20:01:00,29.0,16.0,29.67,WNW,292,10.0,18.0,59,-99.99,,,-99.99,,2013-02-21 01:01:00,
2013-02-20 20:11:00,29.0,16.0,29.67,WNW,292,10.0,18.0,59,-99.99,,,-99.99,,2013-02-21 01:11:00,
2013-02-20 20:21:00,29.0,17.0,29.67,West,274,6.0,18.0,60,-99.99,,,-99.99,,2013-02-21 01:21:00,
2013-02-20 20:32:00,29.0,17.0,29.67,West,274,6.0,18.0,60,-99.99,,,-99.99,,2013-02-21 01:32:00,
2013-02-20 20:42:00,29.0,17.0,29.67,West,274,6.0,18.0,60,-99.99,,,-99.99,,2013-02-21 01:42:00,
2013-02-20 20:51:00,29.0,17.0,29.68,West,264,8.0,18.0,60,-99.99,,,-99.99,,2013-02-21 01:51:00,
2013-02-20 21:02:00,29.0,17.0,29.68,West,265,5.0,14.0,61,-99.99,,,-99.99,,2013-02-21 02:02:00,
2013-02-20 21:11:00,29.0,17.0,29.68,West,265,5.0,14.0,61,-99.99,,,-99.99,,2013-02-21 02:11:00,
2013-02-20 21:21:00,28.0,17.0,29.69,West,271,5.0,15.0,62,-99.99,,,-99.99,,2013-02-21 02:21:00,
2013-02-20 21:32:00,28.0,17.0,29.70,WNW,290,4.0,13.0,62,-99.99,,,-99.99,,2013-02-21 02:32:00,
2013-02-20 21:42:00,28.0,17.0,29.70,WNW,290,4.0,13.0,62,-99.99,,,-99.99,,2013-02-21 02:42:00,
2013-02-20 21:52:00,28.0,17.0,29.70,WNW,290,4.0,13.0,62,-99.99,,,-99.99,,2013-02-21 02:52:00,
2013-02-20 22:02:00,28.0,17.0,29.70,WNW,284,4.0,9.0,63,-99.99,,,-99.99,,2013-02-21 03:02:00,
2013-02-20 22:12:00,28.0,17.0,29.70,WNW,284,4.0,9.0,63,-99.99,,,-99.99,,2013-02-21 03:12:00,
2013-02-20 22:21:00,28.0,17.0,29.70,West,270,6.0,11.0,63,-99.99,,,-99.99,,2013-02-21 03:21:00,
2013-02-20 22:32:00,28.0,17.0,29.71,West,279,3.0,12.0,62,-99.99,,,-99.99,,2013-02-21 03:32:00,
2013-02-20 22:42:00,28.0,17.0,29.71,West,279,3.0,12.0,62,-99.99,,,-99.99,,2013-02-21 03:42:00,
2013-02-20 22:51:00,28.0,17.0,29.71,West,279,4.0,13.0,62,-99.99,,,-99.99,,2013-02-21 03:51:00,
2013-02-20 23:01:00,28.0,17.0,29.71,West,279,5.0,10.0,63,-99.99,,,-99.99,,2013-02-21 04:01:00,
2013-02-20 23:11:00,28.0,17.0,29.71,West,279,5.0,10.0,63,-99.99,,,-99.99,,2013-02-21 04:11:00,
2013-02-20 23:22:00,27.0,16.0,29.72,WNW,284,4.0,11.0,62,-99.99,,,-99.99,,2013-02-21 04:22:00,
2013-02-20 23:32:00,27.0,16.0,29.72,WNW,284,4.0,9.0,63,-99.99,,,-99.99,,2013-02-21 04:32:00,
2013-02-20 23:42:00,27.0,16.0,29.72,WNW,284,4.0,9.0,63,-99.99,,,-99.99,,2013-02-21 04:42:00,
2013-02-20 23:52:00,27.0,16.0,29.73,West,267,7.0,13.0,63,-99.99,,,-99.99,,2013-02-21 04:52:00,